sensor_id;sensor_type;location;lat;lon;timestamp;pressure;altitude;pressure_sealevel;temperature;humidity
21240;BME280;10778;48.962;9.018;2023-03-13T00:01:22;98629.63;;;3.29;100.00
21240;BME280;10778;48.962;9.018;2023-03-13T00:03:49;98629.84;;;3.26;100.00
21240;BME280;10778;48.962;9.018;2023-03-13T00:06:16;98633.16;;;3.28;100.00
21240;BME280;10778;48.962;9.018;2023-03-13T00:08:42;98620.16;;;3.28;100.00
21240;BME280;10778;48.962;9.018;2023-03-13T00:11:10;98617.56;;;3.28;100.00
21240;BME280;10778;48.962;9.018;2023-03-13T00:13:37;98616.75;;;3.27;100.00
21240;BME280;10778;48.962;9.018;2023-03-13T00:16:08;98611.34;;;3.31;100.00
21240;BME280;10778;48.962;9.018;2023-03-13T00:18:35;98612.88;;;3.33;100.00
21240;BME280;10778;48.962;9.018;2023-03-13T00:21:07;98614.56;;;3.34;100.00
21240;BME280;10778;48.962;9.018;2023-03-13T00:23:35;98613.72;;;3.34;100.00
21240;BME280;10778;48.962;9.018;2023-03-13T00:26:07;98601.34;;;3.37;100.00
21240;BME280;10778;48.962;9.018;2023-03-13T00:28:35;98593.34;;;3.40;100.00
21240;BME280;10778;48.962;9.018;2023-03-13T00:31:05;98590.31;;;3.47;100.00
21240;BME280;10778;48.962;9.018;2023-03-13T00:33:36;98584.69;;;3.53;100.00
21240;BME280;10778;48.962;9.018;2023-03-13T00:36:11;98588.75;;;3.57;100.00
21240;BME280;10778;48.962;9.018;2023-03-13T00:38:38;98586.66;;;3.62;100.00
21240;BME280;10778;48.962;9.018;2023-03-13T00:41:06;98579.56;;;3.64;100.00
21240;BME280;10778;48.962;9.018;2023-03-13T00:43:33;98580.19;;;3.68;100.00
21240;BME280;10778;48.962;9.018;2023-03-13T00:46:00;98577.69;;;3.66;100.00
21240;BME280;10778;48.962;9.018;2023-03-13T00:48:26;98576.75;;;3.67;100.00
21240;BME280;10778;48.962;9.018;2023-03-13T00:50:53;98570.81;;;3.65;100.00
21240;BME280;10778;48.962;9.018;2023-03-13T00:53:19;98566.97;;;3.71;100.00
21240;BME280;10778;48.962;9.018;2023-03-13T00:56:01;98559.47;;;3.79;100.00
21240;BME280;10778;48.962;9.018;2023-03-13T00:58:29;98562.78;;;3.81;100.00
21240;BME280;10778;48.962;9.018;2023-03-13T01:00:55;98556.50;;;3.84;100.00
21240;BME280;10778;48.962;9.018;2023-03-13T01:03:23;98550.19;;;3.88;100.00
21240;BME280;10778;48.962;9.018;2023-03-13T01:06:00;98549.56;;;3.84;100.00
21240;BME280;10778;48.962;9.018;2023-03-13T01:08:27;98541.03;;;3.82;100.00
21240;BME280;10778;48.962;9.018;2023-03-13T01:10:58;98539.38;;;3.81;100.00
21240;BME280;10778;48.962;9.018;2023-03-13T01:13:24;98535.91;;;3.81;100.00
21240;BME280;10778;48.962;9.018;2023-03-13T01:15:50;98527.16;;;3.82;100.00
21240;BME280;10778;48.962;9.018;2023-03-13T01:18:16;98522.59;;;3.86;100.00
21240;BME280;10778;48.962;9.018;2023-03-13T01:20:44;98520.44;;;3.79;100.00
21240;BME280;10778;48.962;9.018;2023-03-13T01:23:10;98520.31;;;3.81;100.00
21240;BME280;10778;48.962;9.018;2023-03-13T01:25:36;98517.31;;;3.74;100.00
21240;BME280;10778;48.962;9.018;2023-03-13T01:28:05;98509.84;;;3.69;100.00
21240;BME280;10778;48.962;9.018;2023-03-13T01:30:31;98500.03;;;3.73;100.00
21240;BME280;10778;48.962;9.018;2023-03-13T01:32:57;98506.09;;;3.74;100.00
21240;BME280;10778;48.962;9.018;2023-03-13T01:35:23;98502.78;;;3.72;100.00
21240;BME280;10778;48.962;9.018;2023-03-13T01:37:49;98497.03;;;3.79;100.00
21240;BME280;10778;48.962;9.018;2023-03-13T01:40:15;98487.66;;;3.77;100.00
21240;BME280;10778;48.962;9.018;2023-03-13T01:42:55;98480.34;;;3.82;100.00
21240;BME280;10778;48.962;9.018;2023-03-13T01:51:05;98472.81;;;3.90;100.00
21240;BME280;10778;48.962;9.018;2023-03-13T01:53:36;98462.41;;;3.90;100.00
21240;BME280;10778;48.962;9.018;2023-03-13T01:56:07;98460.44;;;3.94;100.00
21240;BME280;10778;48.962;9.018;2023-03-13T01:58:36;98450.13;;;3.92;100.00
21240;BME280;10778;48.962;9.018;2023-03-13T02:01:04;98447.41;;;3.94;100.00
21240;BME280;10778;48.962;9.018;2023-03-13T02:03:30;98438.03;;;3.91;100.00
21240;BME280;10778;48.962;9.018;2023-03-13T02:05:59;98442.41;;;3.91;100.00
21240;BME280;10778;48.962;9.018;2023-03-13T02:08:31;98433.56;;;3.93;100.00
21240;BME280;10778;48.962;9.018;2023-03-13T02:13:56;98427.88;;;3.99;100.00
21240;BME280;10778;48.962;9.018;2023-03-13T02:16:23;98427.31;;;3.96;100.00
21240;BME280;10778;48.962;9.018;2023-03-13T02:18:50;98428.97;;;3.97;100.00
21240;BME280;10778;48.962;9.018;2023-03-13T02:21:28;98424.91;;;3.93;100.00
21240;BME280;10778;48.962;9.018;2023-03-13T02:23:59;98420.31;;;3.96;100.00
21240;BME280;10778;48.962;9.018;2023-03-13T02:26:27;98421.75;;;4.01;100.00
21240;BME280;10778;48.962;9.018;2023-03-13T02:28:53;98421.31;;;4.07;100.00
21240;BME280;10778;48.962;9.018;2023-03-13T02:31:20;98413.88;;;4.13;100.00
21240;BME280;10778;48.962;9.018;2023-03-13T02:33:46;98411.13;;;4.15;100.00
21240;BME280;10778;48.962;9.018;2023-03-13T02:36:16;98409.47;;;4.14;100.00
21240;BME280;10778;48.962;9.018;2023-03-13T02:38:48;98405.69;;;4.18;100.00
21240;BME280;10778;48.962;9.018;2023-03-13T02:41:17;98396.47;;;4.14;100.00
21240;BME280;10778;48.962;9.018;2023-03-13T02:43:45;98397.78;;;4.20;100.00
21240;BME280;10778;48.962;9.018;2023-03-13T02:46:14;98390.81;;;4.20;100.00
21240;BME280;10778;48.962;9.018;2023-03-13T02:51:34;98384.28;;;4.26;100.00
21240;BME280;10778;48.962;9.018;2023-03-13T02:54:06;98371.88;;;4.30;100.00
21240;BME280;10778;48.962;9.018;2023-03-13T02:56:36;98373.53;;;4.31;100.00
21240;BME280;10778;48.962;9.018;2023-03-13T02:59:03;98365.28;;;4.37;100.00
21240;BME280;10778;48.962;9.018;2023-03-13T03:01:30;98363.97;;;4.54;100.00
21240;BME280;10778;48.962;9.018;2023-03-13T03:03:56;98362.44;;;4.63;100.00
21240;BME280;10778;48.962;9.018;2023-03-13T03:06:23;98353.78;;;4.85;100.00
21240;BME280;10778;48.962;9.018;2023-03-13T03:08:50;98355.25;;;5.22;100.00
21240;BME280;10778;48.962;9.018;2023-03-13T03:11:17;98350.78;;;5.12;100.00
21240;BME280;10778;48.962;9.018;2023-03-13T03:13:46;98346.03;;;5.18;100.00
21240;BME280;10778;48.962;9.018;2023-03-13T03:16:13;98349.06;;;5.34;100.00
21240;BME280;10778;48.962;9.018;2023-03-13T03:18:40;98347.53;;;5.32;100.00
21240;BME280;10778;48.962;9.018;2023-03-13T03:21:06;98353.06;;;5.38;100.00
21240;BME280;10778;48.962;9.018;2023-03-13T03:23:37;98348.25;;;5.34;100.00
21240;BME280;10778;48.962;9.018;2023-03-13T03:26:05;98354.06;;;5.26;100.00
21240;BME280;10778;48.962;9.018;2023-03-13T03:28:31;98355.03;;;5.25;100.00
21240;BME280;10778;48.962;9.018;2023-03-13T03:31:03;98346.97;;;5.17;100.00
21240;BME280;10778;48.962;9.018;2023-03-13T03:33:30;98332.97;;;5.18;100.00
21240;BME280;10778;48.962;9.018;2023-03-13T03:36:05;98343.56;;;5.16;100.00
21240;BME280;10778;48.962;9.018;2023-03-13T03:38:32;98329.66;;;5.16;100.00
21240;BME280;10778;48.962;9.018;2023-03-13T03:40:59;98328.00;;;5.15;100.00
21240;BME280;10778;48.962;9.018;2023-03-13T03:43:26;98332.41;;;5.14;100.00
21240;BME280;10778;48.962;9.018;2023-03-13T03:45:52;98321.34;;;5.22;100.00
21240;BME280;10778;48.962;9.018;2023-03-13T03:48:18;98322.19;;;5.22;100.00
21240;BME280;10778;48.962;9.018;2023-03-13T03:50:44;98323.59;;;5.26;100.00
21240;BME280;10778;48.962;9.018;2023-03-13T03:53:14;98320.63;;;5.31;100.00
21240;BME280;10778;48.962;9.018;2023-03-13T03:55:40;98317.19;;;5.31;100.00
21240;BME280;10778;48.962;9.018;2023-03-13T03:58:06;98307.56;;;5.31;100.00
21240;BME280;10778;48.962;9.018;2023-03-13T04:00:56;98309.03;;;5.57;100.00
21240;BME280;10778;48.962;9.018;2023-03-13T04:03:23;98304.25;;;5.62;100.00
21240;BME280;10778;48.962;9.018;2023-03-13T04:05:49;98290.19;;;5.95;100.00
21240;BME280;10778;48.962;9.018;2023-03-13T04:08:15;98300.03;;;6.75;100.00
21240;BME280;10778;48.962;9.018;2023-03-13T04:10:41;98284.41;;;7.05;100.00
21240;BME280;10778;48.962;9.018;2023-03-13T04:13:08;98293.78;;;7.27;100.00
21240;BME280;10778;48.962;9.018;2023-03-13T04:15:34;98282.72;;;7.82;100.00
21240;BME280;10778;48.962;9.018;2023-03-13T04:18:00;98275.06;;;8.19;100.00
21240;BME280;10778;48.962;9.018;2023-03-13T04:20:27;98273.44;;;8.56;100.00
21240;BME280;10778;48.962;9.018;2023-03-13T04:22:54;98258.19;;;8.87;99.74
21240;BME280;10778;48.962;9.018;2023-03-13T04:25:20;98265.63;;;8.92;100.00
21240;BME280;10778;48.962;9.018;2023-03-13T04:27:49;98255.75;;;9.04;100.00
21240;BME280;10778;48.962;9.018;2023-03-13T04:30:18;98252.75;;;9.35;98.63
21240;BME280;10778;48.962;9.018;2023-03-13T04:33:02;98259.19;;;9.41;97.89
21240;BME280;10778;48.962;9.018;2023-03-13T04:35:57;98252.84;;;9.43;98.13
21240;BME280;10778;48.962;9.018;2023-03-13T04:38:43;98256.63;;;9.49;98.72
21240;BME280;10778;48.962;9.018;2023-03-13T04:41:21;98249.22;;;9.44;99.04
21240;BME280;10778;48.962;9.018;2023-03-13T04:44:10;98248.06;;;9.65;98.04
21240;BME280;10778;48.962;9.018;2023-03-13T04:46:39;98236.63;;;9.74;98.01
21240;BME280;10778;48.962;9.018;2023-03-13T04:49:08;98243.72;;;9.82;97.70
21240;BME280;10778;48.962;9.018;2023-03-13T04:51:58;98232.31;;;9.91;97.49
21240;BME280;10778;48.962;9.018;2023-03-13T04:54:46;98229.22;;;9.96;97.10
21240;BME280;10778;48.962;9.018;2023-03-13T04:57:33;98235.34;;;10.05;96.43
21240;BME280;10778;48.962;9.018;2023-03-13T05:00:23;98236.69;;;10.09;96.06
21240;BME280;10778;48.962;9.018;2023-03-13T05:03:07;98230.75;;;10.07;96.01
21240;BME280;10778;48.962;9.018;2023-03-13T05:05:51;98237.44;;;10.01;96.97
21240;BME280;10778;48.962;9.018;2023-03-13T05:08:52;98233.72;;;10.12;96.19
21240;BME280;10778;48.962;9.018;2023-03-13T05:11:28;98232.41;;;10.08;96.03
21240;BME280;10778;48.962;9.018;2023-03-13T05:14:15;98236.41;;;10.20;96.65
21240;BME280;10778;48.962;9.018;2023-03-13T05:16:50;98230.97;;;10.22;96.03
21240;BME280;10778;48.962;9.018;2023-03-13T05:19:34;98230.72;;;10.33;95.24
21240;BME280;10778;48.962;9.018;2023-03-13T05:22:38;98225.91;;;10.29;95.72
21240;BME280;10778;48.962;9.018;2023-03-13T05:25:16;98224.41;;;10.26;96.64
21240;BME280;10778;48.962;9.018;2023-03-13T05:28:02;98217.56;;;10.33;95.98
21240;BME280;10778;48.962;9.018;2023-03-13T05:30:47;98220.84;;;10.27;95.97
21240;BME280;10778;48.962;9.018;2023-03-13T05:33:36;98228.72;;;10.27;96.55
21240;BME280;10778;48.962;9.018;2023-03-13T05:36:09;98222.00;;;10.33;97.03
21240;BME280;10778;48.962;9.018;2023-03-13T05:38:55;98220.38;;;10.40;95.78
21240;BME280;10778;48.962;9.018;2023-03-13T05:41:40;98211.97;;;10.36;96.54
21240;BME280;10778;48.962;9.018;2023-03-13T05:44:23;98217.25;;;10.36;96.41
21240;BME280;10778;48.962;9.018;2023-03-13T05:47:18;98210.91;;;10.47;95.37
21240;BME280;10778;48.962;9.018;2023-03-13T05:50:04;98214.50;;;10.46;96.23
21240;BME280;10778;48.962;9.018;2023-03-13T05:52:35;98215.03;;;10.50;95.49
21240;BME280;10778;48.962;9.018;2023-03-13T05:55:10;98205.97;;;10.52;95.15
21240;BME280;10778;48.962;9.018;2023-03-13T05:58:05;98200.63;;;10.71;94.02
21240;BME280;10778;48.962;9.018;2023-03-13T06:01:06;98198.13;;;10.69;94.42
21240;BME280;10778;48.962;9.018;2023-03-13T06:03:52;98206.84;;;10.61;94.98
21240;BME280;10778;48.962;9.018;2023-03-13T06:06:19;98217.84;;;10.65;95.66
21240;BME280;10778;48.962;9.018;2023-03-13T06:08:51;98209.81;;;10.66;94.85
21240;BME280;10778;48.962;9.018;2023-03-13T06:11:18;98218.50;;;10.67;95.27
21240;BME280;10778;48.962;9.018;2023-03-13T06:13:44;98212.44;;;10.66;95.30
21240;BME280;10778;48.962;9.018;2023-03-13T06:16:23;98212.25;;;10.68;94.79
21240;BME280;10778;48.962;9.018;2023-03-13T06:18:49;98197.47;;;10.67;95.16
21240;BME280;10778;48.962;9.018;2023-03-13T06:21:15;98181.72;;;10.75;95.24
21240;BME280;10778;48.962;9.018;2023-03-13T06:23:41;98198.16;;;10.86;94.51
21240;BME280;10778;48.962;9.018;2023-03-13T06:26:08;98191.59;;;10.90;94.09
21240;BME280;10778;48.962;9.018;2023-03-13T06:28:34;98200.13;;;10.84;94.13
21240;BME280;10778;48.962;9.018;2023-03-13T06:31:01;98198.00;;;10.87;94.40
21240;BME280;10778;48.962;9.018;2023-03-13T06:33:28;98197.16;;;10.87;94.36
21240;BME280;10778;48.962;9.018;2023-03-13T06:35:54;98203.94;;;10.89;94.55
21240;BME280;10778;48.962;9.018;2023-03-13T06:38:20;98207.06;;;10.93;94.34
21240;BME280;10778;48.962;9.018;2023-03-13T06:40:45;98204.25;;;10.94;94.81
21240;BME280;10778;48.962;9.018;2023-03-13T06:43:11;98206.06;;;10.86;94.49
21240;BME280;10778;48.962;9.018;2023-03-13T06:45:37;98213.66;;;10.89;94.72
21240;BME280;10778;48.962;9.018;2023-03-13T06:48:03;98217.28;;;11.21;94.09
21240;BME280;10778;48.962;9.018;2023-03-13T06:50:30;98223.53;;;11.36;93.15
21240;BME280;10778;48.962;9.018;2023-03-13T06:52:56;98219.78;;;11.31;94.16
21240;BME280;10778;48.962;9.018;2023-03-13T06:55:23;98218.94;;;11.30;93.29
21240;BME280;10778;48.962;9.018;2023-03-13T06:57:50;98225.19;;;11.37;93.38
21240;BME280;10778;48.962;9.018;2023-03-13T07:00:17;98221.25;;;11.42;92.70
21240;BME280;10778;48.962;9.018;2023-03-13T07:02:43;98230.78;;;11.43;93.79
21240;BME280;10778;48.962;9.018;2023-03-13T07:05:09;98231.94;;;11.40;92.40
21240;BME280;10778;48.962;9.018;2023-03-13T07:07:35;98237.88;;;11.50;92.42
21240;BME280;10778;48.962;9.018;2023-03-13T07:10:01;98228.00;;;11.36;91.63
21240;BME280;10778;48.962;9.018;2023-03-13T07:12:27;98219.25;;;11.52;91.93
21240;BME280;10778;48.962;9.018;2023-03-13T07:14:53;98225.00;;;11.64;92.65
21240;BME280;10778;48.962;9.018;2023-03-13T07:17:19;98232.59;;;11.67;91.73
21240;BME280;10778;48.962;9.018;2023-03-13T07:19:45;98219.56;;;11.74;90.68
21240;BME280;10778;48.962;9.018;2023-03-13T07:22:11;98216.16;;;11.48;91.56
21240;BME280;10778;48.962;9.018;2023-03-13T07:24:37;98218.59;;;11.33;92.83
21240;BME280;10778;48.962;9.018;2023-03-13T07:27:03;98214.00;;;11.27;94.07
21240;BME280;10778;48.962;9.018;2023-03-13T07:29:30;98206.09;;;11.35;93.19
21240;BME280;10778;48.962;9.018;2023-03-13T07:31:56;98210.38;;;11.28;94.33
21240;BME280;10778;48.962;9.018;2023-03-13T07:34:22;98203.13;;;11.30;94.61
21240;BME280;10778;48.962;9.018;2023-03-13T07:36:48;98198.69;;;11.47;93.25
21240;BME280;10778;48.962;9.018;2023-03-13T07:39:14;98186.81;;;11.60;93.35
21240;BME280;10778;48.962;9.018;2023-03-13T07:41:40;98195.38;;;11.62;93.46
21240;BME280;10778;48.962;9.018;2023-03-13T07:44:07;98184.03;;;11.61;93.15
21240;BME280;10778;48.962;9.018;2023-03-13T07:46:33;98193.06;;;11.59;93.93
21240;BME280;10778;48.962;9.018;2023-03-13T07:48:59;98184.66;;;11.63;93.52
21240;BME280;10778;48.962;9.018;2023-03-13T07:51:25;98185.97;;;11.67;93.83
21240;BME280;10778;48.962;9.018;2023-03-13T07:53:51;98180.38;;;11.71;93.39
21240;BME280;10778;48.962;9.018;2023-03-13T07:56:20;98184.00;;;11.78;93.84
21240;BME280;10778;48.962;9.018;2023-03-13T07:58:46;98177.38;;;11.90;92.69
21240;BME280;10778;48.962;9.018;2023-03-13T08:01:22;98164.50;;;11.95;92.48
21240;BME280;10778;48.962;9.018;2023-03-13T08:03:48;98156.38;;;12.14;91.03
21240;BME280;10778;48.962;9.018;2023-03-13T08:06:20;98162.63;;;12.21;89.86
21240;BME280;10778;48.962;9.018;2023-03-13T08:08:48;98152.16;;;12.36;89.73
21240;BME280;10778;48.962;9.018;2023-03-13T08:11:17;98156.06;;;12.48;88.95
21240;BME280;10778;48.962;9.018;2023-03-13T08:13:44;98147.06;;;12.58;88.13
21240;BME280;10778;48.962;9.018;2023-03-13T08:16:16;98149.81;;;12.73;87.04
21240;BME280;10778;48.962;9.018;2023-03-13T08:18:44;98134.66;;;12.90;86.85
21240;BME280;10778;48.962;9.018;2023-03-13T08:21:13;98144.94;;;12.85;86.96
21240;BME280;10778;48.962;9.018;2023-03-13T08:23:39;98144.53;;;12.96;86.80
21240;BME280;10778;48.962;9.018;2023-03-13T08:26:08;98149.91;;;13.03;85.47
21240;BME280;10778;48.962;9.018;2023-03-13T08:28:35;98156.41;;;13.15;84.72
21240;BME280;10778;48.962;9.018;2023-03-13T08:33:37;98156.50;;;13.22;83.83
21240;BME280;10778;48.962;9.018;2023-03-13T08:36:24;98157.09;;;13.32;83.98
21240;BME280;10778;48.962;9.018;2023-03-13T08:38:57;98157.44;;;13.29;82.70
21240;BME280;10778;48.962;9.018;2023-03-13T08:41:26;98143.78;;;13.41;82.36
21240;BME280;10778;48.962;9.018;2023-03-13T08:43:57;98142.28;;;13.46;82.50
21240;BME280;10778;48.962;9.018;2023-03-13T08:46:24;98147.28;;;13.41;81.61
21240;BME280;10778;48.962;9.018;2023-03-13T08:48:51;98143.03;;;13.55;81.34
21240;BME280;10778;48.962;9.018;2023-03-13T08:51:20;98142.50;;;13.60;81.72
21240;BME280;10778;48.962;9.018;2023-03-13T08:53:47;98142.13;;;13.63;80.63
21240;BME280;10778;48.962;9.018;2023-03-13T08:56:16;98145.69;;;13.70;81.00
21240;BME280;10778;48.962;9.018;2023-03-13T08:58:43;98145.75;;;13.77;80.50
21240;BME280;10778;48.962;9.018;2023-03-13T09:01:11;98141.31;;;13.77;79.83
21240;BME280;10778;48.962;9.018;2023-03-13T09:03:38;98138.50;;;13.79;79.54
21240;BME280;10778;48.962;9.018;2023-03-13T09:06:06;98145.50;;;13.87;78.97
21240;BME280;10778;48.962;9.018;2023-03-13T09:08:32;98148.94;;;14.02;77.20
21240;BME280;10778;48.962;9.018;2023-03-13T09:11:19;98133.38;;;14.07;74.94
21240;BME280;10778;48.962;9.018;2023-03-13T09:13:47;98111.91;;;14.02;75.54
21240;BME280;10778;48.962;9.018;2023-03-13T09:20:00;98121.69;;;14.97;72.74
21240;BME280;10778;48.962;9.018;2023-03-13T09:22:26;98122.69;;;14.96;71.10
21240;BME280;10778;48.962;9.018;2023-03-13T09:24:52;98128.84;;;14.75;71.16
21240;BME280;10778;48.962;9.018;2023-03-13T09:27:18;98129.53;;;14.69;72.70
21240;BME280;10778;48.962;9.018;2023-03-13T09:29:44;98135.22;;;14.65;73.13
21240;BME280;10778;48.962;9.018;2023-03-13T09:32:10;98124.06;;;14.48;72.81
21240;BME280;10778;48.962;9.018;2023-03-13T09:34:36;98126.13;;;14.53;72.47
21240;BME280;10778;48.962;9.018;2023-03-13T09:37:02;98142.50;;;14.42;72.97
21240;BME280;10778;48.962;9.018;2023-03-13T09:39:29;98116.22;;;14.62;72.58
21240;BME280;10778;48.962;9.018;2023-03-13T09:44:44;98109.84;;;15.85;67.53
21240;BME280;10778;48.962;9.018;2023-03-13T09:49:40;98129.56;;;15.41;68.52
21240;BME280;10778;48.962;9.018;2023-03-13T09:52:16;98121.09;;;15.24;70.29
21240;BME280;10778;48.962;9.018;2023-03-13T09:54:59;98120.94;;;15.32;69.63
21240;BME280;10778;48.962;9.018;2023-03-13T09:57:32;98124.41;;;15.32;69.71
21240;BME280;10778;48.962;9.018;2023-03-13T10:00:00;98125.22;;;15.33;69.58
21240;BME280;10778;48.962;9.018;2023-03-13T10:02:34;98122.63;;;15.40;69.74
21240;BME280;10778;48.962;9.018;2023-03-13T10:05:21;98127.44;;;15.58;69.14
21240;BME280;10778;48.962;9.018;2023-03-13T10:07:48;98109.09;;;16.54;66.18
21240;BME280;10778;48.962;9.018;2023-03-13T10:10:36;98101.69;;;17.77;61.97
21240;BME280;10778;48.962;9.018;2023-03-13T10:13:27;98102.91;;;17.81;61.94
21240;BME280;10778;48.962;9.018;2023-03-13T10:15:59;98093.25;;;18.71;58.94
21240;BME280;10778;48.962;9.018;2023-03-13T10:18:26;98098.31;;;19.12;57.95
21240;BME280;10778;48.962;9.018;2023-03-13T10:20:56;98097.22;;;17.64;61.83
21240;BME280;10778;48.962;9.018;2023-03-13T10:23:42;98096.25;;;17.31;63.67
21240;BME280;10778;48.962;9.018;2023-03-13T10:26:15;98095.56;;;17.70;62.14
21240;BME280;10778;48.962;9.018;2023-03-13T10:28:43;98087.25;;;16.85;64.71
21240;BME280;10778;48.962;9.018;2023-03-13T10:31:15;98096.44;;;16.89;64.60
21240;BME280;10778;48.962;9.018;2023-03-13T10:33:43;98087.47;;;16.70;66.09
21240;BME280;10778;48.962;9.018;2023-03-13T10:36:11;98078.66;;;16.76;65.25
21240;BME280;10778;48.962;9.018;2023-03-13T10:38:49;98079.69;;;16.69;65.79
21240;BME280;10778;48.962;9.018;2023-03-13T10:41:28;98077.22;;;16.67;67.02
21240;BME280;10778;48.962;9.018;2023-03-13T10:44:14;98076.22;;;16.61;65.50
21240;BME280;10778;48.962;9.018;2023-03-13T10:46:43;98067.84;;;16.78;65.00
21240;BME280;10778;48.962;9.018;2023-03-13T10:49:21;98072.56;;;16.69;65.32
21240;BME280;10778;48.962;9.018;2023-03-13T10:51:49;98064.78;;;16.81;65.24
21240;BME280;10778;48.962;9.018;2023-03-13T10:54:26;98047.22;;;17.80;61.82
21240;BME280;10778;48.962;9.018;2023-03-13T10:59:46;98035.75;;;19.70;57.04
21240;BME280;10778;48.962;9.018;2023-03-13T11:04:53;98044.06;;;18.99;58.39
21240;BME280;10778;48.962;9.018;2023-03-13T11:07:29;98036.94;;;19.37;59.21
21240;BME280;10778;48.962;9.018;2023-03-13T11:12:27;98030.00;;;18.34;59.25
21240;BME280;10778;48.962;9.018;2023-03-13T11:14:57;98035.44;;;18.46;59.96
21240;BME280;10778;48.962;9.018;2023-03-13T11:22:30;98015.25;;;18.32;61.36
21240;BME280;10778;48.962;9.018;2023-03-13T11:27:47;98005.03;;;18.29;62.05
21240;BME280;10778;48.962;9.018;2023-03-13T11:31:18;98006.56;;;18.18;61.63
21240;BME280;10778;48.962;9.018;2023-03-13T11:36:11;97994.19;;;17.91;61.58
21240;BME280;10778;48.962;9.018;2023-03-13T11:38:47;97983.38;;;18.18;61.41
21240;BME280;10778;48.962;9.018;2023-03-13T11:41:27;97977.56;;;18.03;62.48
21240;BME280;10778;48.962;9.018;2023-03-13T11:44:13;97971.78;;;17.67;63.33
21240;BME280;10778;48.962;9.018;2023-03-13T12:00:42;97929.31;;;17.54;62.56
21240;BME280;10778;48.962;9.018;2023-03-13T12:03:18;97914.28;;;17.73;62.83
21240;BME280;10778;48.962;9.018;2023-03-13T12:05:52;97919.63;;;17.98;62.35
21240;BME280;10778;48.962;9.018;2023-03-13T12:08:27;97919.31;;;17.81;62.86
21240;BME280;10778;48.962;9.018;2023-03-13T12:13:39;97899.53;;;18.34;62.65
21240;BME280;10778;48.962;9.018;2023-03-13T12:16:11;97886.91;;;18.48;61.03
21240;BME280;10778;48.962;9.018;2023-03-13T12:18:40;97871.97;;;18.85;60.01
21240;BME280;10778;48.962;9.018;2023-03-13T12:21:37;97854.88;;;18.93;60.76
21240;BME280;10778;48.962;9.018;2023-03-13T12:26:46;97849.41;;;19.67;57.31
21240;BME280;10778;48.962;9.018;2023-03-13T12:31:58;97832.34;;;19.68;57.06
21240;BME280;10778;48.962;9.018;2023-03-13T12:34:58;97830.25;;;20.25;56.14
21240;BME280;10778;48.962;9.018;2023-03-13T12:37:33;97813.38;;;20.60;55.47
21240;BME280;10778;48.962;9.018;2023-03-13T12:40:40;97800.66;;;20.14;55.27
21240;BME280;10778;48.962;9.018;2023-03-13T12:43:16;97787.97;;;20.22;55.43
21240;BME280;10778;48.962;9.018;2023-03-13T12:51:20;97762.44;;;20.26;54.60
21240;BME280;10778;48.962;9.018;2023-03-13T12:56:43;97754.78;;;20.29;55.57
21240;BME280;10778;48.962;9.018;2023-03-13T12:59:18;97750.81;;;20.32;55.96
21240;BME280;10778;48.962;9.018;2023-03-13T13:01:49;97749.69;;;19.92;54.75
21240;BME280;10778;48.962;9.018;2023-03-13T13:04:26;97738.19;;;20.15;56.08
21240;BME280;10778;48.962;9.018;2023-03-13T13:07:19;97735.16;;;19.88;55.71
21240;BME280;10778;48.962;9.018;2023-03-13T13:12:35;97718.69;;;20.15;55.01
21240;BME280;10778;48.962;9.018;2023-03-13T13:15:24;97710.81;;;19.96;56.67
21240;BME280;10778;48.962;9.018;2023-03-13T13:20:33;97703.94;;;19.65;55.75
21240;BME280;10778;48.962;9.018;2023-03-13T13:23:20;97688.72;;;19.77;56.95
21240;BME280;10778;48.962;9.018;2023-03-13T13:25:47;97681.56;;;19.78;56.57
21240;BME280;10778;48.962;9.018;2023-03-13T13:30:40;97663.09;;;19.76;56.49
21240;BME280;10778;48.962;9.018;2023-03-13T13:38:37;97651.44;;;21.05;54.39
21240;BME280;10778;48.962;9.018;2023-03-13T13:48:37;97623.16;;;20.92;52.81
21240;BME280;10778;48.962;9.018;2023-03-13T13:53:45;97621.25;;;20.75;55.34
21240;BME280;10778;48.962;9.018;2023-03-13T14:01:47;97603.25;;;20.83;56.37
21240;BME280;10778;48.962;9.018;2023-03-13T14:04:18;97604.38;;;21.04;56.09
21240;BME280;10778;48.962;9.018;2023-03-13T14:06:50;97595.41;;;21.67;54.33
21240;BME280;10778;48.962;9.018;2023-03-13T14:12:34;97566.13;;;22.27;52.19
21240;BME280;10778;48.962;9.018;2023-03-13T14:18:08;97555.00;;;21.91;51.58
21240;BME280;10778;48.962;9.018;2023-03-13T14:20:36;97566.38;;;21.58;52.12
21240;BME280;10778;48.962;9.018;2023-03-13T14:23:06;97550.50;;;21.52;52.92
21240;BME280;10778;48.962;9.018;2023-03-13T14:25:47;97548.09;;;21.95;51.90
21240;BME280;10778;48.962;9.018;2023-03-13T14:28:16;97538.66;;;22.42;49.33
21240;BME280;10778;48.962;9.018;2023-03-13T14:30:43;97526.69;;;23.20;48.00
21240;BME280;10778;48.962;9.018;2023-03-13T14:33:10;97531.75;;;22.79;49.01
21240;BME280;10778;48.962;9.018;2023-03-13T14:35:36;97535.09;;;22.96;50.20
21240;BME280;10778;48.962;9.018;2023-03-13T14:38:02;97525.00;;;23.09;48.42
21240;BME280;10778;48.962;9.018;2023-03-13T14:40:30;97511.19;;;23.27;48.78
21240;BME280;10778;48.962;9.018;2023-03-13T14:42:59;97498.91;;;23.42;48.18
21240;BME280;10778;48.962;9.018;2023-03-13T14:45:31;97498.78;;;23.21;46.40
21240;BME280;10778;48.962;9.018;2023-03-13T14:48:22;97483.56;;;22.89;48.03
21240;BME280;10778;48.962;9.018;2023-03-13T14:50:50;97483.06;;;22.59;46.67
21240;BME280;10778;48.962;9.018;2023-03-13T14:53:20;97470.38;;;22.82;47.21
21240;BME280;10778;48.962;9.018;2023-03-13T14:55:47;97467.31;;;22.63;46.98
21240;BME280;10778;48.962;9.018;2023-03-13T15:00:47;97450.75;;;22.39;46.46
21240;BME280;10778;48.962;9.018;2023-03-13T15:08:29;97430.06;;;22.67;46.83
21240;BME280;10778;48.962;9.018;2023-03-13T15:10:55;97426.22;;;22.20;47.23
21240;BME280;10778;48.962;9.018;2023-03-13T15:13:24;97412.44;;;22.38;47.15
21240;BME280;10778;48.962;9.018;2023-03-13T15:15:51;97403.53;;;22.27;47.65
21240;BME280;10778;48.962;9.018;2023-03-13T15:18:26;97394.19;;;22.35;47.80